Time;durP1;ratioP1;P1;durP2;ratioP2;P2;SDS_P1;SDS_P2;PMS_P1;PMS_P2;Temp;Humidity;BMP_temperature;BMP_pressure;BME280_temperature;BME280_humidity;BME280_pressure;Samples;Min_cycle;Max_cycle;Signal;HPM_P1;HPM_P2
2022/05/04 00:02:02;;;;;;;1.60;1.13;;;;;16.30;101871.00;;;;5065519;28;20199;-77
2022/05/04 00:04:29;;;;;;;2.13;1.17;;;;;16.30;101862.00;;;;5065543;28;20584;-77
2022/05/04 00:06:56;;;;;;;6.28;1.70;;;;;16.30;101859.00;;;;5065042;28;20195;-76
2022/05/04 00:09:24;;;;;;;2.65;1.42;;;;;16.30;101869.00;;;;5065840;28;20207;-76
2022/05/04 00:11:52;;;;;;;2.25;1.02;;;;;16.30;101863.00;;;;5065293;28;20539;-77
2022/05/04 00:14:19;;;;;;;1.92;1.50;;;;;16.30;101870.00;;;;5065683;28;20206;-77
2022/05/04 00:16:47;;;;;;;3.28;1.10;;;;;16.20;101871.00;;;;5065011;28;20234;-77
2022/05/04 00:19:14;;;;;;;1.95;1.25;;;;;16.20;101873.00;;;;5065345;28;20195;-76
2022/05/04 00:21:41;;;;;;;1.80;1.15;;;;;16.20;101869.00;;;;5065036;28;20207;-76
2022/05/04 00:24:08;;;;;;;2.38;1.00;;;;;16.20;101856.00;;;;5064822;28;20198;-76
2022/05/04 00:26:36;;;;;;;2.58;1.30;;;;;16.20;101854.00;;;;5065147;28;20207;-77
2022/05/04 00:29:04;;;;;;;3.00;1.30;;;;;16.20;101858.00;;;;5065055;28;20241;-76
2022/05/04 00:31:32;;;;;;;3.53;1.25;;;;;16.20;101856.00;;;;5064457;28;20203;-76
2022/05/04 00:33:59;;;;;;;3.08;1.60;;;;;16.20;101850.00;;;;5064437;28;20202;-76
2022/05/04 00:36:29;;;;;;;2.40;1.20;;;;;16.10;101848.00;;;;5064564;28;20230;-76
2022/05/04 00:38:56;;;;;;;3.65;1.20;;;;;16.20;101856.00;;;;5064870;28;20277;-76
2022/05/04 00:41:23;;;;;;;2.25;1.30;;;;;16.10;101852.00;;;;5078348;28;20246;-76
2022/05/04 00:43:55;;;;;;;2.85;1.20;;;;;16.10;101849.00;;;;5084706;28;20210;-76
2022/05/04 00:46:23;;;;;;;4.25;1.88;;;;;16.10;101854.00;;;;5084663;28;20584;-76
2022/05/04 00:48:51;;;;;;;3.35;1.00;;;;;16.10;101855.00;;;;5070470;28;20198;-76
2022/05/04 00:51:19;;;;;;;3.00;1.33;;;;;16.10;101853.00;;;;5068801;28;20195;-77
2022/05/04 00:53:47;;;;;;;3.13;1.10;;;;;16.00;101848.00;;;;5071070;28;20210;-77
2022/05/04 00:56:15;;;;;;;1.42;1.15;;;;;16.00;101850.00;;;;5069474;28;20236;-78
2022/05/04 00:58:57;;;;;;;3.10;1.20;;;;;16.00;101854.00;;;;5066461;28;20211;-77
2022/05/04 01:01:31;;;;;;;4.47;1.45;;;;;15.90;101859.00;;;;5067359;28;20191;-77
2022/05/04 01:04:00;;;;;;;6.05;1.88;;;;;15.90;101862.00;;;;5070647;28;20191;-78
2022/05/04 01:06:28;;;;;;;3.00;1.48;;;;;15.90;101857.00;;;;5070357;28;20207;-77
2022/05/04 01:08:56;;;;;;;3.95;1.30;;;;;15.90;101853.00;;;;5054709;28;20212;-77
2022/05/04 01:11:23;;;;;;;4.93;1.60;;;;;15.90;101857.00;;;;5055558;28;20223;-77
2022/05/04 01:14:01;;;;;;;2.78;1.40;;;;;15.70;101852.00;;;;5068905;28;20191;-77
2022/05/04 01:16:30;;;;;;;2.92;1.55;;;;;15.80;101856.00;;;;5058628;28;20631;-77
2022/05/04 01:18:58;;;;;;;2.53;0.98;;;;;15.80;101850.00;;;;5050477;28;20245;-77
2022/05/04 01:21:25;;;;;;;3.47;1.50;;;;;15.70;101857.00;;;;5050715;28;20192;-77
2022/05/04 01:23:55;;;;;;;2.85;0.90;;;;;15.70;101848.00;;;;5051192;28;20238;-77
2022/05/04 01:26:22;;;;;;;3.95;1.38;;;;;15.70;101847.00;;;;5049837;28;20204;-77
2022/05/04 01:28:50;;;;;;;4.38;1.40;;;;;15.60;101841.00;;;;5050517;28;20569;-77
2022/05/04 01:31:17;;;;;;;3.83;1.10;;;;;15.60;101845.00;;;;5050291;28;20199;-77
2022/05/04 01:33:44;;;;;;;6.65;2.15;;;;;15.60;101844.00;;;;5051093;28;20196;-77
2022/05/04 01:36:12;;;;;;;4.55;1.65;;;;;15.60;101849.00;;;;5049448;28;20252;-77
2022/05/04 01:38:39;;;;;;;4.78;1.50;;;;;15.50;101850.00;;;;5050452;28;20208;-77
2022/05/04 01:42:02;;;;;;;4.43;1.45;;;;;15.50;101853.00;;;;5052275;28;20981;-77
2022/05/04 01:43:55;;;;;;;2.65;1.52;;;;;15.50;101854.00;;;;5069732;28;20715;-77
2022/05/04 01:46:22;;;;;;;3.78;1.60;;;;;15.50;101851.00;;;;5069658;28;20211;-77
2022/05/04 01:48:50;;;;;;;3.47;1.48;;;;;15.50;101848.00;;;;5070290;28;20206;-77
2022/05/04 01:51:17;;;;;;;2.35;1.15;;;;;15.40;101847.00;;;;5069286;28;20284;-77
2022/05/04 01:53:46;;;;;;;1.92;1.20;;;;;15.40;101848.00;;;;5069768;28;20206;-77
2022/05/04 01:56:14;;;;;;;1.38;1.23;;;;;15.40;101846.00;;;;5069841;28;20230;-77
2022/05/04 01:58:42;;;;;;;3.13;1.33;;;;;15.40;101842.00;;;;5069086;28;20669;-77
2022/05/04 02:01:09;;;;;;;1.83;1.20;;;;;15.40;101843.00;;;;5068681;28;20202;-77
2022/05/04 02:03:38;;;;;;;3.13;1.83;;;;;15.40;101840.00;;;;5070176;28;20289;-77
2022/05/04 02:06:05;;;;;;;4.63;1.65;;;;;15.40;101838.00;;;;5067400;28;20194;-77
2022/05/04 02:08:33;;;;;;;3.22;1.73;;;;;15.40;101840.00;;;;5061767;28;20191;-77
2022/05/04 02:11:01;;;;;;;5.18;1.83;;;;;15.40;101842.00;;;;5065270;28;20271;-77
2022/05/04 02:13:29;;;;;;;4.68;1.90;;;;;15.40;101837.00;;;;5049350;28;20192;-77
2022/05/04 02:15:56;;;;;;;2.72;1.45;;;;;15.40;101838.00;;;;5049751;28;20199;-77
2022/05/04 02:18:23;;;;;;;3.65;1.75;;;;;15.40;101836.00;;;;5049748;28;20199;-77
2022/05/04 02:20:51;;;;;;;2.50;1.27;;;;;15.40;101828.00;;;;5060649;28;20665;-77
2022/05/04 02:23:18;;;;;;;3.70;1.58;;;;;15.40;101831.00;;;;5068903;28;20202;-76
2022/05/04 02:25:46;;;;;;;4.93;1.55;;;;;15.40;101833.00;;;;5069583;28;20251;-76
2022/05/04 02:28:13;;;;;;;2.88;1.60;;;;;15.40;101826.00;;;;5069558;28;20210;-76
2022/05/04 02:30:42;;;;;;;3.95;1.50;;;;;15.40;101823.00;;;;5069411;28;20207;-76
2022/05/04 02:33:09;;;;;;;3.78;2.03;;;;;15.40;101825.00;;;;5068925;28;20673;-76
2022/05/04 02:38:21;;;;;;;3.42;1.63;;;;;15.40;101822.00;;;;5069137;28;20255;-77
2022/05/04 02:40:49;;;;;;;7.95;1.90;;;;;15.40;101818.00;;;;5065536;28;20662;-77
2022/05/04 02:43:16;;;;;;;5.38;1.52;;;;;15.40;101823.00;;;;5048985;28;20219;-76
2022/05/04 02:45:44;;;;;;;5.20;1.45;;;;;15.30;101818.00;;;;5048744;28;20196;-77
2022/05/04 02:48:12;;;;;;;4.05;1.63;;;;;15.30;101821.00;;;;5049487;28;20202;-77
2022/05/04 02:50:39;;;;;;;2.60;2.15;;;;;15.30;101817.00;;;;5049711;28;20205;-77
2022/05/04 02:53:07;;;;;;;5.15;1.65;;;;;15.30;101819.00;;;;5048820;28;20208;-77
2022/05/04 02:55:34;;;;;;;4.45;1.25;;;;;15.30;101813.00;;;;5048406;28;20198;-77
2022/05/04 02:58:01;;;;;;;5.80;1.90;;;;;15.30;101810.00;;;;5049579;28;20227;-77
2022/05/04 03:00:29;;;;;;;2.38;1.27;;;;;15.30;101808.00;;;;5057054;28;20580;-77
2022/05/04 03:02:57;;;;;;;3.45;1.83;;;;;15.30;101806.00;;;;5068779;28;20209;-77
2022/05/04 03:05:28;;;;;;;3.30;1.75;;;;;15.30;101806.00;;;;5069340;28;20279;-77
2022/05/04 03:07:55;;;;;;;5.32;2.30;;;;;15.30;101809.00;;;;5053316;28;20203;-77
2022/05/04 03:10:22;;;;;;;5.78;1.80;;;;;15.30;101808.00;;;;5049332;28;20206;-77
2022/05/04 03:12:49;;;;;;;3.70;1.80;;;;;15.20;101798.00;;;;5049548;28;20196;-77
2022/05/04 03:15:17;;;;;;;4.68;1.48;;;;;15.20;101802.00;;;;5050128;28;20204;-77
2022/05/04 03:17:44;;;;;;;3.00;1.63;;;;;15.20;101804.00;;;;5049039;28;20219;-77
2022/05/04 03:20:13;;;;;;;4.43;1.90;;;;;15.20;101806.00;;;;5048562;28;20207;-77
2022/05/04 03:22:40;;;;;;;4.68;2.05;;;;;15.20;101795.00;;;;5049418;28;20210;-77
2022/05/04 03:25:09;;;;;;;2.88;1.60;;;;;15.20;101799.00;;;;5049620;28;20203;-77
2022/05/04 03:27:36;;;;;;;3.17;1.80;;;;;15.20;101797.00;;;;5049133;28;20960;-77
2022/05/04 03:30:05;;;;;;;6.60;1.83;;;;;15.10;101801.00;;;;5048856;28;20231;-77
2022/05/04 03:32:32;;;;;;;3.40;1.80;;;;;15.10;101803.00;;;;5049901;28;20207;-77
2022/05/04 03:35:00;;;;;;;5.70;1.85;;;;;15.10;101798.00;;;;5048642;28;20290;-77
2022/05/04 03:37:28;;;;;;;4.03;1.52;;;;;15.10;101803.00;;;;5049021;28;20223;-77
2022/05/04 03:39:56;;;;;;;3.30;2.03;;;;;15.10;101797.00;;;;5059231;28;20195;-77
2022/05/04 03:42:23;;;;;;;3.17;1.70;;;;;15.00;101793.00;;;;5067013;28;20700;-77
2022/05/04 03:44:50;;;;;;;4.60;1.45;;;;;15.00;101795.00;;;;5068330;28;20202;-77
2022/05/04 03:47:17;;;;;;;4.35;1.40;;;;;14.90;101798.00;;;;5068536;28;20665;-77
2022/05/04 03:49:45;;;;;;;3.63;1.50;;;;;14.90;101791.00;;;;5054228;28;20203;-77
2022/05/04 03:52:12;;;;;;;3.53;1.75;;;;;14.80;101794.00;;;;5047998;28;20261;-77
2022/05/04 03:54:41;;;;;;;5.05;1.90;;;;;14.80;101788.00;;;;5048362;28;20207;-77
2022/05/04 03:57:08;;;;;;;5.65;2.17;;;;;14.70;101789.00;;;;5046804;28;20738;-77
2022/05/04 03:59:35;;;;;;;4.65;1.98;;;;;14.70;101791.00;;;;5048373;28;21223;-77
2022/05/04 04:02:03;;;;;;;6.93;2.03;;;;;14.60;101791.00;;;;5048162;28;20207;-77
2022/05/04 04:04:30;;;;;;;4.32;1.67;;;;;14.60;101796.00;;;;5047757;28;20665;-77
2022/05/04 04:06:57;;;;;;;3.67;1.42;;;;;14.50;101796.00;;;;5056067;28;20195;-77
2022/05/04 04:09:24;;;;;;;4.00;1.90;;;;;14.50;101787.00;;;;5068260;28;20195;-77
2022/05/04 04:11:53;;;;;;;3.42;1.60;;;;;14.40;101796.00;;;;5067240;28;20199;-77
2022/05/04 04:14:20;;;;;;;4.13;1.98;;;;;14.30;101790.00;;;;5068226;28;20210;-77
2022/05/04 04:16:47;;;;;;;6.00;2.00;;;;;14.30;101795.00;;;;5067691;28;20467;-76
2022/05/04 04:19:15;;;;;;;3.92;1.65;;;;;14.20;101795.00;;;;5068424;28;20195;-77
2022/05/04 04:21:53;;;;;;;3.83;1.80;;;;;14.20;101798.00;;;;5049720;28;20199;-78
2022/05/04 04:24:22;;;;;;;6.28;1.60;;;;;14.10;101801.00;;;;5052474;28;20225;-78
2022/05/04 04:26:49;;;;;;;3.67;2.10;;;;;14.10;101802.00;;;;5051717;28;20212;-77
2022/05/04 04:29:18;;;;;;;2.95;1.80;;;;;14.00;101803.00;;;;5060183;28;20673;-77
2022/05/04 04:31:45;;;;;;;3.67;1.92;;;;;14.00;101794.00;;;;5071930;28;20553;-77
2022/05/04 04:34:12;;;;;;;3.95;1.65;;;;;13.90;101797.00;;;;5071585;28;20222;-77
2022/05/04 04:36:40;;;;;;;4.18;1.75;;;;;13.90;101804.00;;;;5071001;28;20256;-78
2022/05/04 04:39:07;;;;;;;3.50;1.63;;;;;13.80;101801.00;;;;5070634;28;20209;-77
2022/05/04 04:41:35;;;;;;;2.83;1.98;;;;;13.80;101800.00;;;;5062954;28;20199;-78
2022/05/04 04:44:02;;;;;;;2.38;1.50;;;;;13.80;101803.00;;;;5071304;28;20207;-77
2022/05/04 04:46:31;;;;;;;6.55;2.47;;;;;13.70;101794.00;;;;5071279;28;20199;-78
2022/05/04 04:48:58;;;;;;;2.45;1.70;;;;;13.70;101796.00;;;;5071266;28;20984;-78
2022/05/04 04:51:25;;;;;;;4.57;1.88;;;;;13.70;101797.00;;;;5071173;28;20281;-77
2022/05/04 04:53:53;;;;;;;7.35;2.50;;;;;13.60;101801.00;;;;5070988;28;20198;-77
2022/05/04 04:56:20;;;;;;;2.45;1.90;;;;;13.60;101807.00;;;;5069474;28;20610;-78
2022/05/04 04:58:47;;;;;;;5.78;2.22;;;;;13.60;101797.00;;;;5051132;28;20227;-77
2022/05/04 05:01:14;;;;;;;3.20;1.50;;;;;13.60;101801.00;;;;5063707;28;20198;-77
2022/05/04 05:03:43;;;;;;;3.40;1.60;;;;;13.60;101791.00;;;;5071395;28;20584;-77
2022/05/04 05:06:12;;;;;;;4.45;1.67;;;;;13.60;101794.00;;;;5060598;28;20230;-78
2022/05/04 05:08:42;;;;;;;2.55;1.60;;;;;13.60;101797.00;;;;5051076;28;21176;-77
2022/05/04 05:11:09;;;;;;;4.80;2.00;;;;;13.60;101797.00;;;;5051049;28;20209;-77
2022/05/04 05:16:06;;;;;;;8.02;2.25;;;;;13.60;101798.00;;;;5051927;28;20211;-77
2022/05/04 05:16:23;;;;;;;3.00;1.65;;;;;13.60;101795.00;;;;5050537;28;20206;-77
2022/05/04 05:18:51;;;;;;;4.90;1.88;;;;;13.60;101793.00;;;;5050579;28;20277;-77
2022/05/04 05:21:19;;;;;;;4.72;1.85;;;;;13.70;101793.00;;;;5050760;28;20203;-77
2022/05/04 05:23:46;;;;;;;4.38;1.83;;;;;13.70;101796.00;;;;5051758;28;20199;-78
2022/05/04 05:26:14;;;;;;;4.50;1.88;;;;;13.80;101802.00;;;;5050291;28;20234;-78
2022/05/04 05:28:41;;;;;;;6.82;1.90;;;;;13.80;101795.00;;;;5050281;28;20199;-77
2022/05/04 05:31:08;;;;;;;3.22;1.85;;;;;13.90;101792.00;;;;5050089;28;20227;-77
2022/05/04 05:33:36;;;;;;;5.07;2.30;;;;;13.90;101795.00;;;;5050271;28;20298;-77
2022/05/04 05:36:05;;;;;;;4.65;2.00;;;;;14.00;101800.00;;;;5050165;28;20617;-77
2022/05/04 05:38:32;;;;;;;2.38;1.65;;;;;14.10;101798.00;;;;5050044;28;20230;-76
2022/05/04 05:41:01;;;;;;;2.15;1.70;;;;;14.20;101811.00;;;;5050436;28;20192;-78
2022/05/04 05:43:29;;;;;;;4.90;1.70;;;;;14.30;101807.00;;;;5050252;28;20298;-78
2022/05/04 05:45:57;;;;;;;5.05;2.30;;;;;14.30;101805.00;;;;5050065;28;20648;-78
2022/05/04 05:48:24;;;;;;;3.33;1.63;;;;;14.40;101795.00;;;;5050310;28;20207;-75
2022/05/04 05:50:51;;;;;;;8.18;2.47;;;;;14.50;101803.00;;;;5049808;28;20212;-76
2022/05/04 05:53:22;;;;;;;4.28;1.52;;;;;14.60;101812.00;;;;5049935;28;20225;-76
2022/05/04 05:55:50;;;;;;;3.30;1.75;;;;;14.60;101800.00;;;;5048840;28;20286;-76
2022/05/04 05:58:17;;;;;;;5.53;1.50;;;;;14.70;101802.00;;;;5049794;28;20227;-76
2022/05/04 06:00:44;;;;;;;3.45;1.50;;;;;14.80;101800.00;;;;5058601;28;20588;-76
2022/05/04 06:03:13;;;;;;;3.22;1.50;;;;;14.80;101805.00;;;;5069272;28;20198;-76
2022/05/04 06:05:40;;;;;;;4.30;2.00;;;;;14.90;101804.00;;;;5067713;28;20203;-76
2022/05/04 06:08:09;;;;;;;3.28;1.77;;;;;15.00;101803.00;;;;5063600;28;20674;-76
2022/05/04 06:10:38;;;;;;;3.08;1.70;;;;;15.10;101807.00;;;;5049059;28;20211;-76
2022/05/04 06:13:06;;;;;;;7.18;2.20;;;;;15.10;101803.00;;;;5049121;28;20211;-76
2022/05/04 06:15:33;;;;;;;3.10;1.50;;;;;15.20;101811.00;;;;5049120;28;20199;-76
2022/05/04 06:18:01;;;;;;;5.75;1.70;;;;;15.30;101803.00;;;;5049061;28;20226;-77
2022/05/04 06:20:28;;;;;;;5.35;1.50;;;;;15.30;101811.00;;;;5048628;28;20750;-77
2022/05/04 06:22:55;;;;;;;3.42;1.20;;;;;15.40;101815.00;;;;5049373;28;20208;-77
2022/05/04 06:25:23;;;;;;;7.28;1.88;;;;;15.50;101809.00;;;;5049096;28;20187;-76
2022/05/04 06:27:51;;;;;;;4.78;2.03;;;;;15.60;101814.00;;;;5049011;28;20204;-76
2022/05/04 06:35:48;;;;;;;2.83;1.90;;;;;15.80;101813.00;;;;5048737;28;20245;-76
2022/05/04 06:38:15;;;;;;;2.63;1.35;;;;;15.90;101816.00;;;;5048947;28;20223;-76
2022/05/04 06:40:43;;;;;;;3.05;1.60;;;;;16.00;101809.00;;;;5048136;28;20196;-77
2022/05/04 06:43:11;;;;;;;2.03;1.30;;;;;16.00;101812.00;;;;5048396;28;20220;-76
2022/05/04 06:45:38;;;;;;;3.35;1.40;;;;;16.10;101810.00;;;;5047866;28;20685;-76
2022/05/04 06:48:06;;;;;;;3.38;1.88;;;;;16.10;101808.00;;;;5048848;28;20206;-77
2022/05/04 06:50:34;;;;;;;4.50;1.50;;;;;16.20;101820.00;;;;5060732;28;20210;-76
2022/05/04 06:53:01;;;;;;;4.45;1.70;;;;;16.30;101815.00;;;;5068838;28;20194;-76
2022/05/04 06:55:28;;;;;;;7.38;1.70;;;;;16.40;101823.00;;;;5067874;28;20207;-76
2022/05/04 06:57:55;;;;;;;3.40;1.38;;;;;16.50;101823.00;;;;5068934;28;20226;-77
2022/05/04 07:00:24;;;;;;;5.25;1.90;;;;;16.50;101821.00;;;;5067935;28;20199;-77
2022/05/04 07:02:51;;;;;;;3.13;1.58;;;;;16.60;101825.00;;;;5068235;28;20198;-76
2022/05/04 07:05:19;;;;;;;3.80;1.95;;;;;16.70;101822.00;;;;5058035;28;20203;-77
2022/05/04 07:07:46;;;;;;;4.47;1.75;;;;;16.80;101823.00;;;;5048583;28;20195;-76
2022/05/04 07:10:13;;;;;;;2.22;1.38;;;;;16.80;101818.00;;;;5048669;28;20207;-76
2022/05/04 07:12:40;;;;;;;2.33;1.33;;;;;16.90;101818.00;;;;5048417;28;20204;-76
2022/05/04 07:15:08;;;;;;;3.55;1.33;;;;;17.00;101816.00;;;;5048574;28;20191;-76
2022/05/04 07:17:37;;;;;;;2.78;1.20;;;;;17.10;101814.00;;;;5048296;28;20206;-76
2022/05/04 07:20:05;;;;;;;3.83;1.90;;;;;17.20;101823.00;;;;5068075;28;20203;-76
2022/05/04 07:22:32;;;;;;;2.05;1.25;;;;;17.30;101821.00;;;;5068159;28;20252;-76
2022/05/04 07:25:00;;;;;;;6.13;1.75;;;;;17.40;101819.00;;;;5068395;28;20554;-76
2022/05/04 07:27:27;;;;;;;2.55;1.50;;;;;17.50;101817.00;;;;5068649;28;20194;-77
2022/05/04 07:29:55;;;;;;;4.72;1.48;;;;;17.60;101818.00;;;;5065599;28;20195;-76
2022/05/04 07:32:22;;;;;;;4.85;1.95;;;;;17.70;101816.00;;;;5068478;28;20665;-76
2022/05/04 07:34:51;;;;;;;2.88;1.80;;;;;17.80;101825.00;;;;5068243;28;20190;-77
2022/05/04 07:37:18;;;;;;;2.45;1.73;;;;;17.80;101824.00;;;;5067216;28;20317;-76
2022/05/04 07:42:30;;;;;;;4.68;2.25;;;;;18.00;101823.00;;;;5047457;28;20268;-77
2022/05/04 07:45:03;;;;;;;2.88;1.60;;;;;18.00;101822.00;;;;5047652;28;20195;-76
2022/05/04 07:47:32;;;;;;;4.50;1.50;;;;;18.10;101818.00;;;;5047801;28;20210;-76
2022/05/04 07:50:02;;;;;;;2.58;1.52;;;;;18.20;101825.00;;;;5047495;28;20215;-76
2022/05/04 07:52:29;;;;;;;3.67;1.55;;;;;18.20;101818.00;;;;5047356;28;20199;-76
2022/05/04 07:54:56;;;;;;;3.28;1.65;;;;;18.30;101824.00;;;;5047584;28;20211;-77
2022/05/04 07:57:24;;;;;;;6.00;1.90;;;;;18.40;101828.00;;;;5049064;28;20238;-77
2022/05/04 08:05:19;;;;;;;4.18;1.73;;;;;18.70;101831.00;;;;5069955;28;20579;-77
2022/05/04 08:07:46;;;;;;;2.80;1.65;;;;;18.90;101833.00;;;;5071645;28;20203;-77
2022/05/04 08:10:14;;;;;;;5.95;2.30;;;;;19.00;101828.00;;;;5058475;28;20207;-77
2022/05/04 08:12:41;;;;;;;4.35;1.98;;;;;19.10;101826.00;;;;5051704;28;20235;-77
2022/05/04 08:15:10;;;;;;;4.18;1.88;;;;;19.20;101828.00;;;;5051905;28;20211;-76
2022/05/04 08:17:37;;;;;;;3.08;2.28;;;;;19.30;101828.00;;;;5051600;28;20215;-77
2022/05/04 08:20:05;;;;;;;3.58;2.30;;;;;19.40;101824.00;;;;5070839;28;20219;-76
2022/05/04 08:22:33;;;;;;;3.65;2.38;;;;;19.50;101831.00;;;;5071171;28;20206;-76
2022/05/04 08:25:01;;;;;;;3.70;2.08;;;;;19.70;101827.00;;;;5072125;28;20878;-77
2022/05/04 08:27:29;;;;;;;3.05;2.28;;;;;19.80;101825.00;;;;5071652;28;20199;-77
2022/05/04 08:29:56;;;;;;;4.72;2.22;;;;;19.90;101836.00;;;;5071019;28;20669;-77
2022/05/04 08:32:26;;;;;;;3.42;1.75;;;;;19.90;101831.00;;;;5071961;28;20240;-77
2022/05/04 08:34:54;;;;;;;7.32;2.25;;;;;19.90;101825.00;;;;5071849;28;20199;-76
2022/05/04 08:37:21;;;;;;;2.83;1.98;;;;;20.00;101823.00;;;;5069222;28;20234;-77
2022/05/04 08:39:49;;;;;;;6.43;2.22;;;;;20.00;101821.00;;;;5064267;28;20222;-77
2022/05/04 08:42:19;;;;;;;4.47;2.10;;;;;20.10;101827.00;;;;5071236;28;20202;-77
2022/05/04 08:44:48;;;;;;;3.13;1.98;;;;;20.20;101826.00;;;;5071922;28;20218;-77
2022/05/04 08:47:18;;;;;;;4.50;1.88;;;;;20.40;101825.00;;;;5071018;28;20198;-77
2022/05/04 08:49:47;;;;;;;4.93;2.63;;;;;20.50;101825.00;;;;5071247;28;20210;-76
2022/05/04 08:52:15;;;;;;;5.80;2.55;;;;;20.60;101824.00;;;;5071501;28;20212;-77
2022/05/04 08:54:44;;;;;;;3.58;2.15;;;;;20.70;101827.00;;;;5066670;28;20200;-76
2022/05/04 08:57:13;;;;;;;4.45;2.53;;;;;20.80;101831.00;;;;5051153;28;20207;-77
2022/05/04 08:59:41;;;;;;;4.22;2.30;;;;;21.00;101825.00;;;;5052392;28;20230;-77
2022/05/04 09:02:10;;;;;;;3.42;2.08;;;;;21.10;101828.00;;;;5051229;28;20204;-77
2022/05/04 09:04:40;;;;;;;4.30;2.40;;;;;21.20;101828.00;;;;5050638;28;20239;-77
2022/05/04 09:07:21;;;;;;;3.05;1.85;;;;;21.20;101823.00;;;;5050922;28;20235;-76
2022/05/04 09:09:48;;;;;;;3.15;2.13;;;;;21.40;101818.00;;;;5050058;28;20654;-76
2022/05/04 09:12:17;;;;;;;5.28;2.33;;;;;21.50;101815.00;;;;5051197;28;20686;-76
2022/05/04 09:14:45;;;;;;;4.68;2.58;;;;;21.60;101818.00;;;;5050850;28;20666;-77
2022/05/04 09:17:15;;;;;;;5.03;2.33;;;;;21.80;101822.00;;;;5050391;28;20212;-77
2022/05/04 09:20:45;;;;;;;3.60;2.00;;;;;21.90;101819.00;;;;5049900;28;20231;-77
2022/05/04 09:22:41;;;;;;;6.40;2.58;;;;;22.00;101823.00;;;;5050483;28;20204;-76
2022/05/04 09:25:16;;;;;;;4.68;2.33;;;;;22.00;101823.00;;;;5050363;28;20199;-76
2022/05/04 09:27:45;;;;;;;3.08;2.03;;;;;22.10;101813.00;;;;5050244;28;20734;-76
2022/05/04 09:30:13;;;;;;;5.50;2.40;;;;;22.10;101814.00;;;;5055989;28;20237;-77
2022/05/04 09:32:44;;;;;;;2.95;2.20;;;;;22.10;101821.00;;;;5050419;28;20287;-76
2022/05/04 09:35:15;;;;;;;4.43;2.60;;;;;22.10;101816.00;;;;5050239;28;20191;-76
2022/05/04 09:46:05;;;;;;;5.32;2.08;;;;;22.10;101805.00;;;;5057736;28;20304;-75
2022/05/04 09:48:34;;;;;;;5.60;2.42;;;;;22.30;101800.00;;;;5070008;28;20207;-75
2022/05/04 09:51:05;;;;;;;4.57;1.83;;;;;22.40;101799.00;;;;5070397;28;20209;-76
2022/05/04 09:53:33;;;;;;;4.80;2.58;;;;;22.70;101797.00;;;;5069730;28;20198;-76
2022/05/04 09:56:01;;;;;;;4.40;2.38;;;;;22.80;101805.00;;;;5070125;28;20199;-76
2022/05/04 09:58:31;;;;;;;9.07;2.88;;;;;22.90;101796.00;;;;5069719;28;20266;-76
2022/05/04 10:00:59;;;;;;;2.72;2.22;;;;;23.00;101799.00;;;;5065147;28;20203;-76
2022/05/04 10:03:26;;;;;;;3.53;2.45;;;;;23.10;101808.00;;;;5061710;28;20199;-76
2022/05/04 10:05:55;;;;;;;5.05;2.75;;;;;23.20;101805.00;;;;5070161;28;20673;-76
2022/05/04 10:08:23;;;;;;;7.05;2.50;;;;;23.30;101807.00;;;;5069894;28;20234;-75
2022/05/04 10:10:53;;;;;;;5.05;2.75;;;;;23.30;101805.00;;;;5069597;28;20199;-76
2022/05/04 10:13:22;;;;;;;4.32;2.45;;;;;23.40;101802.00;;;;5069956;28;21009;-75
2022/05/04 10:15:53;;;;;;;3.45;1.98;;;;;23.50;101798.00;;;;5069022;28;20206;-75
2022/05/04 10:18:24;;;;;;;4.32;2.40;;;;;23.60;101796.00;;;;5061783;28;20223;-75
2022/05/04 10:21:01;;;;;;;7.60;2.63;;;;;23.60;101796.00;;;;5049451;28;20235;-76
2022/05/04 10:23:31;;;;;;;4.03;2.40;;;;;23.70;101799.00;;;;5049749;28;20207;-76
2022/05/04 10:25:59;;;;;;;3.90;2.63;;;;;23.80;101803.00;;;;5049330;28;20203;-76
2022/05/04 10:28:27;;;;;;;3.75;2.65;;;;;23.90;101799.00;;;;5049263;28;20199;-76
2022/05/04 10:31:06;;;;;;;8.88;2.78;;;;;23.90;101802.00;;;;5050413;28;20245;-76
2022/05/04 10:33:35;;;;;;;7.78;2.70;;;;;24.00;101795.00;;;;5049770;28;20207;-76
2022/05/04 10:36:15;;;;;;;3.47;2.47;;;;;23.90;101796.00;;;;5049356;28;20238;-76
2022/05/04 10:38:44;;;;;;;3.75;2.45;;;;;24.00;101788.00;;;;5049449;28;20273;-76
2022/05/04 10:41:12;;;;;;;5.20;2.95;;;;;24.00;101789.00;;;;5049048;28;20246;-75
2022/05/04 10:43:45;;;;;;;3.92;2.85;;;;;24.00;101780.00;;;;5049310;28;20644;-76
2022/05/04 10:46:20;;;;;;;4.72;2.67;;;;;24.00;101786.00;;;;5049172;28;20261;-76
2022/05/04 10:48:55;;;;;;;4.65;2.35;;;;;24.10;101782.00;;;;5050318;28;20302;-76
2022/05/04 10:51:24;;;;;;;4.47;2.63;;;;;24.20;101778.00;;;;5069331;28;20371;-75
2022/05/04 10:53:53;;;;;;;4.57;2.20;;;;;24.30;101768.00;;;;5067705;28;20580;-76
2022/05/04 10:56:22;;;;;;;8.90;2.72;;;;;24.40;101779.00;;;;5069234;28;20187;-75
2022/05/04 10:58:58;;;;;;;4.40;2.33;;;;;24.40;101772.00;;;;5067143;28;20223;-76
2022/05/04 11:01:30;;;;;;;4.25;2.60;;;;;24.50;101773.00;;;;5064720;28;20255;-76
2022/05/04 11:04:07;;;;;;;4.18;2.72;;;;;24.50;101772.00;;;;5052818;28;20658;-76
2022/05/04 11:06:36;;;;;;;6.18;2.63;;;;;24.60;101774.00;;;;5048581;28;20594;-76
2022/05/04 11:09:08;;;;;;;4.05;2.53;;;;;24.50;101771.00;;;;5049308;28;20199;-76
2022/05/04 11:11:37;;;;;;;3.72;2.80;;;;;24.60;101773.00;;;;5050433;28;20211;-76
2022/05/04 11:14:05;;;;;;;5.45;2.70;;;;;24.60;101768.00;;;;5049375;28;20658;-76
2022/05/04 11:16:34;;;;;;;4.32;2.35;;;;;24.70;101772.00;;;;5049086;28;20195;-76
2022/05/04 11:19:02;;;;;;;3.58;2.35;;;;;24.70;101770.00;;;;5049247;28;20222;-75
2022/05/04 11:21:30;;;;;;;5.90;2.65;;;;;24.70;101770.00;;;;5049014;28;20195;-75
2022/05/04 11:23:59;;;;;;;3.15;2.45;;;;;24.70;101767.00;;;;5049511;28;20196;-76
2022/05/04 11:26:27;;;;;;;4.43;2.63;;;;;24.70;101771.00;;;;5049510;28;20582;-76
2022/05/04 11:28:55;;;;;;;4.40;3.22;;;;;24.60;101769.00;;;;5052565;28;20191;-75
2022/05/04 11:31:23;;;;;;;4.07;3.10;;;;;24.60;101771.00;;;;5048558;28;20723;-75
2022/05/04 11:33:52;;;;;;;7.18;2.80;;;;;24.60;101762.00;;;;5049633;28;20211;-75
2022/05/04 11:36:21;;;;;;;6.15;2.88;;;;;24.60;101759.00;;;;5048790;28;20725;-75
2022/05/04 11:38:49;;;;;;;14.13;2.85;;;;;24.70;101762.00;;;;5048906;28;20659;-75
2022/05/04 11:41:17;;;;;;;4.38;2.85;;;;;24.70;101761.00;;;;5048665;28;20684;-75
2022/05/04 11:43:44;;;;;;;3.35;2.70;;;;;24.70;101764.00;;;;5048655;28;20231;-76
2022/05/04 11:46:13;;;;;;;5.63;2.67;;;;;24.70;101771.00;;;;5066072;28;20226;-76
2022/05/04 11:48:43;;;;;;;3.88;2.38;;;;;24.70;101755.00;;;;5069022;28;20209;-75
2022/05/04 11:51:13;;;;;;;5.68;2.95;;;;;24.80;101766.00;;;;5068818;28;20191;-76
2022/05/04 11:53:40;;;;;;;3.10;2.28;;;;;24.80;101759.00;;;;5067470;28;20194;-75
2022/05/04 11:56:09;;;;;;;3.83;2.50;;;;;24.70;101757.00;;;;5068144;28;20260;-75
2022/05/04 11:58:38;;;;;;;4.80;3.40;;;;;24.80;101762.00;;;;5054447;28;20678;-75
2022/05/04 12:01:06;;;;;;;4.97;3.03;;;;;24.80;101757.00;;;;5061329;28;20254;-76
2022/05/04 12:03:36;;;;;;;6.88;2.95;;;;;24.80;101750.00;;;;5048345;28;20545;-75
2022/05/04 12:06:09;;;;;;;4.28;2.50;;;;;24.80;101750.00;;;;5048675;28;20290;-76
2022/05/04 12:08:38;;;;;;;3.65;2.95;;;;;24.80;101746.00;;;;5048233;28;20703;-75
2022/05/04 12:11:07;;;;;;;6.85;3.35;;;;;24.90;101753.00;;;;5048410;28;20211;-75
2022/05/04 12:13:36;;;;;;;4.25;3.17;;;;;24.90;101741.00;;;;5047640;28;20658;-75
2022/05/04 12:16:04;;;;;;;3.75;2.60;;;;;24.90;101741.00;;;;5048132;28;20188;-75
2022/05/04 12:18:33;;;;;;;5.60;2.72;;;;;24.90;101731.00;;;;5047633;28;20207;-75
2022/05/04 12:21:06;;;;;;;7.72;3.20;;;;;24.90;101739.00;;;;5047544;28;20607;-75
2022/05/04 12:23:34;;;;;;;4.45;2.95;;;;;24.90;101736.00;;;;5047895;28;20206;-76
2022/05/04 12:26:04;;;;;;;3.17;2.40;;;;;24.80;101742.00;;;;5047177;28;21065;-76
2022/05/04 12:28:31;;;;;;;7.93;2.80;;;;;24.80;101733.00;;;;5047359;28;20231;-75
2022/05/04 12:33:43;;;;;;;3.08;2.30;;;;;24.90;101732.00;;;;5047662;28;21098;-76
2022/05/04 12:36:12;;;;;;;4.90;3.30;;;;;24.90;101735.00;;;;5047792;28;20365;-76
2022/05/04 12:38:46;;;;;;;4.38;2.70;;;;;25.00;101728.00;;;;5047638;28;20207;-75
2022/05/04 12:41:18;;;;;;;4.05;2.83;;;;;24.90;101728.00;;;;5047386;28;20227;-75
2022/05/04 12:43:46;;;;;;;4.05;2.67;;;;;25.00;101728.00;;;;5049041;28;20216;-76